Time;durP1;ratioP1;P1;durP2;ratioP2;P2;SDS_P1;SDS_P2;PMS_P1;PMS_P2;Temp;Humidity;BMP_temperature;BMP_pressure;BME280_temperature;BME280_humidity;BME280_pressure;Samples;Min_cycle;Max_cycle;Signal;HPM_P1;HPM_P2
2022/12/31 00:01:34;;;;;;;1.10;0.70;;;14.40;99.90;;;;;;5075320;28;20346;-77
2022/12/31 00:04:00;;;;;;;1.60;0.60;;;14.50;99.90;;;;;;5093717;28;20173;-78
2022/12/31 00:06:29;;;;;;;1.53;0.77;;;14.40;99.90;;;;;;5075302;28;20174;-77
2022/12/31 00:08:56;;;;;;;0.90;0.60;;;14.40;99.90;;;;;;5075313;28;20207;-78
2022/12/31 00:11:24;;;;;;;0.60;0.60;;;14.30;99.90;;;;;;5074767;28;20178;-79
2022/12/31 00:13:50;;;;;;;0.97;0.87;;;14.20;99.90;;;;;;5075283;28;20182;-78
2022/12/31 00:16:30;;;;;;;0.80;0.80;;;14.20;99.90;;;;;;5093344;28;20276;-78
2022/12/31 00:18:58;;;;;;;0.83;0.57;;;14.40;99.90;;;;;;5075232;28;20180;-79
2022/12/31 00:21:25;;;;;;;0.50;0.50;;;14.40;99.90;;;;;;5075204;28;20205;-78
2022/12/31 00:23:51;;;;;;;0.67;0.53;;;14.30;99.90;;;;;;5075257;28;20186;-77
2022/12/31 00:26:20;;;;;;;0.93;0.60;;;14.40;99.90;;;;;;5075012;28;20649;-78
2022/12/31 00:28:46;;;;;;;1.80;0.40;;;14.40;99.90;;;;;;5093131;28;20579;-78
2022/12/31 00:31:18;;;;;;;0.73;0.30;;;14.50;99.90;;;;;;5075609;28;20203;-77
2022/12/31 00:33:44;;;;;;;1.00;0.50;;;14.50;99.90;;;;;;5075369;28;20178;-77
2022/12/31 00:36:12;;;;;;;0.30;0.20;;;14.60;99.90;;;;;;5093197;28;20190;-78
2022/12/31 00:38:39;;;;;;;0.30;0.30;;;14.60;99.90;;;;;;5075130;28;20268;-77
2022/12/31 00:41:06;;;;;;;0.63;0.30;;;14.60;99.90;;;;;;5075123;28;20288;-77
2022/12/31 00:43:32;;;;;;;0.30;0.30;;;14.70;99.90;;;;;;5078871;28;20224;-77
2022/12/31 00:45:58;;;;;;;0.77;0.40;;;14.80;99.90;;;;;;5096941;28;20188;-77
2022/12/31 00:48:24;;;;;;;0.57;0.40;;;14.80;99.90;;;;;;5097301;28;20526;-77
2022/12/31 00:50:50;;;;;;;0.30;0.30;;;14.90;99.90;;;;;;5079159;28;20716;-77
2022/12/31 00:53:15;;;;;;;0.20;0.20;;;14.90;99.90;;;;;;5078793;28;20204;-77
2022/12/31 00:55:41;;;;;;;0.47;0.33;;;15.00;99.90;;;;;;5079142;28;20177;-77
2022/12/31 00:58:06;;;;;;;0.83;0.30;;;15.10;99.90;;;;;;5078494;28;20604;-77
2022/12/31 01:00:32;;;;;;;0.20;0.20;;;15.20;99.90;;;;;;5096937;28;20658;-76
2022/12/31 01:03:00;;;;;;;0.23;0.20;;;15.20;99.90;;;;;;5079210;28;20197;-77
2022/12/31 01:05:25;;;;;;;0.47;0.20;;;15.30;99.90;;;;;;5078696;28;20173;-76
2022/12/31 01:07:51;;;;;;;0.77;0.27;;;15.30;99.90;;;;;;5096758;28;20569;-76
2022/12/31 01:11:17;;;;;;;1.23;0.20;;;15.40;99.90;;;;;;5096487;28;20174;-77
2022/12/31 01:13:04;;;;;;;0.40;0.20;;;15.30;99.90;;;;;;5095912;28;20182;-77
2022/12/31 01:15:39;;;;;;;0.50;0.33;;;15.40;99.90;;;;;;5096457;28;20170;-76
2022/12/31 01:18:07;;;;;;;0.60;0.30;;;15.40;99.90;;;;;;5096578;28;20163;-77
2022/12/31 01:20:38;;;;;;;0.20;0.13;;;15.30;99.90;;;;;;5096270;28;20171;-76
2022/12/31 01:23:05;;;;;;;0.37;0.17;;;15.30;99.90;;;;;;5096165;28;20202;-77
2022/12/31 01:25:34;;;;;;;0.63;0.30;;;15.30;99.90;;;;;;5096575;28;20241;-75
2022/12/31 01:28:01;;;;;;;0.63;0.20;;;15.30;99.90;;;;;;5078299;28;20207;-77
2022/12/31 01:30:27;;;;;;;1.27;0.30;;;15.30;99.90;;;;;;5096555;28;20651;-81
2022/12/31 01:32:52;;;;;;;0.83;0.43;;;15.20;99.90;;;;;;5078688;28;20188;-79
2022/12/31 01:35:18;;;;;;;2.90;0.30;;;14.90;99.90;;;;;;5078505;28;20185;-78
2022/12/31 01:37:44;;;;;;;1.50;0.37;;;14.70;99.90;;;;;;5078472;28;20523;-79
2022/12/31 01:40:11;;;;;;;0.90;0.30;;;14.40;99.90;;;;;;5097158;28;20258;-77
2022/12/31 01:42:36;;;;;;;1.50;0.30;;;14.40;99.90;;;;;;5080543;28;20203;-78
2022/12/31 01:45:02;;;;;;;0.77;0.30;;;14.40;99.90;;;;;;5077982;28;20171;-79
2022/12/31 01:47:36;;;;;;;1.57;0.20;;;14.30;99.90;;;;;;5078193;28;20526;-79
2022/12/31 01:50:21;;;;;;;0.33;0.13;;;14.20;99.90;;;;;;5078047;28;20643;-79
2022/12/31 01:52:50;;;;;;;0.60;0.30;;;14.40;99.90;;;;;;5077411;28;20245;-79
2022/12/31 01:55:34;;;;;;;0.77;0.60;;;14.40;99.90;;;;;;5077455;28;20223;-79
2022/12/31 01:58:11;;;;;;;0.90;0.20;;;14.50;99.90;;;;;;5078284;28;20195;-79
2022/12/31 02:00:37;;;;;;;0.50;0.20;;;14.50;99.90;;;;;;5077950;28;20182;-79
2022/12/31 02:03:06;;;;;;;1.10;0.20;;;14.60;99.90;;;;;;5077501;28;20723;-79
2022/12/31 02:06:00;;;;;;;1.10;0.30;;;14.50;99.90;;;;;;5095593;28;20533;-80
2022/12/31 02:08:25;;;;;;;1.23;0.47;;;14.40;99.90;;;;;;5078389;28;20185;-79
2022/12/31 02:10:51;;;;;;;0.70;0.30;;;14.50;99.90;;;;;;5095559;28;20532;-80
2022/12/31 02:13:16;;;;;;;1.30;0.30;;;14.60;99.90;;;;;;5078026;28;20178;-80
2022/12/31 02:16:10;;;;;;;1.23;0.40;;;14.80;99.90;;;;;;5077996;28;20184;-80
2022/12/31 02:18:55;;;;;;;0.60;0.33;;;14.80;99.90;;;;;;5077946;28;20541;-80
2022/12/31 02:21:46;;;;;;;1.23;0.30;;;14.90;99.90;;;;;;5095643;28;20209;-80
2022/12/31 02:24:36;;;;;;;0.23;0.20;;;14.90;99.90;;;;;;5094951;28;20177;-80
2022/12/31 02:27:28;;;;;;;1.43;0.40;;;14.90;99.90;;;;;;5077362;28;20180;-79
2022/12/31 02:30:15;;;;;;;1.03;0.30;;;14.80;99.90;;;;;;5077519;28;20651;-80
2022/12/31 02:32:56;;;;;;;3.90;0.40;;;14.80;99.90;;;;;;5095598;28;20576;-80
2022/12/31 02:35:21;;;;;;;2.93;0.40;;;14.70;99.90;;;;;;5095337;28;20181;-80
2022/12/31 02:37:52;;;;;;;2.93;0.30;;;14.70;99.90;;;;;;5077517;28;20181;-80
2022/12/31 02:40:22;;;;;;;0.83;0.30;;;14.70;99.90;;;;;;5077082;28;20230;-79
2022/12/31 02:42:48;;;;;;;1.17;0.20;;;14.70;99.90;;;;;;5094800;28;20241;-80
2022/12/31 02:45:21;;;;;;;2.20;0.30;;;14.70;99.90;;;;;;5077191;28;20538;-80
2022/12/31 02:48:07;;;;;;;2.97;0.70;;;14.80;99.90;;;;;;5095668;28;20177;-79
2022/12/31 02:50:54;;;;;;;2.93;0.57;;;14.90;99.90;;;;;;5077408;28;20178;-79
2022/12/31 02:53:36;;;;;;;2.20;0.60;;;14.90;99.90;;;;;;5076450;28;20316;-79
2022/12/31 02:56:21;;;;;;;2.80;0.60;;;14.90;99.90;;;;;;5076196;28;20187;-79
2022/12/31 03:04:56;;;;;;;2.37;0.40;;;14.90;99.90;;;;;;5049596;28;20642;-79
2022/12/31 03:07:23;;;;;;;0.83;0.40;;;14.90;99.90;;;;;;5076565;28;20634;-79
2022/12/31 03:09:49;;;;;;;1.97;0.60;;;14.90;99.90;;;;;;5076796;28;20186;-79
2022/12/31 03:15:02;;;;;;;2.03;0.50;;;15.00;99.90;;;;;;5094944;28;20190;-79
2022/12/31 03:17:28;;;;;;;3.10;0.67;;;15.10;99.90;;;;;;5076019;28;20683;-78
2022/12/31 03:22:41;;;;;;;1.23;0.33;;;15.10;99.90;;;;;;5093744;28;20622;-78
2022/12/31 03:27:53;;;;;;;4.03;0.40;;;15.20;99.90;;;;;;5094000;28;20180;-78
2022/12/31 03:30:21;;;;;;;3.73;0.70;;;15.30;99.90;;;;;;5075828;28;20202;-78
2022/12/31 03:32:47;;;;;;;2.27;0.60;;;15.30;99.90;;;;;;5075927;28;20178;-77
2022/12/31 03:35:16;;;;;;;3.47;0.63;;;15.30;99.90;;;;;;5094326;28;20174;-77
2022/12/31 03:37:42;;;;;;;2.23;0.60;;;15.40;99.90;;;;;;5094023;28;20283;-77
2022/12/31 03:40:10;;;;;;;2.07;1.00;;;15.40;99.90;;;;;;5094134;28;20166;-78
2022/12/31 03:42:36;;;;;;;2.50;0.53;;;15.50;99.90;;;;;;5093480;28;20205;-77
2022/12/31 03:45:02;;;;;;;1.93;0.67;;;15.50;99.90;;;;;;5093785;28;20200;-77
2022/12/31 03:47:28;;;;;;;1.33;0.33;;;15.50;99.90;;;;;;5093846;28;20233;-77
2022/12/31 03:49:54;;;;;;;1.33;0.30;;;15.50;99.90;;;;;;5093668;28;20250;-77
2022/12/31 03:52:20;;;;;;;1.80;0.40;;;15.50;99.90;;;;;;5075236;28;20210;-77
2022/12/31 03:54:45;;;;;;;1.83;0.50;;;15.60;99.90;;;;;;5075644;28;20226;-77
2022/12/31 03:57:11;;;;;;;1.10;0.40;;;15.70;99.90;;;;;;5075087;28;20204;-77
2022/12/31 03:59:38;;;;;;;2.50;0.70;;;15.70;99.90;;;;;;5075291;28;20515;-77
2022/12/31 04:02:04;;;;;;;2.17;0.50;;;15.70;99.90;;;;;;5075215;28;20202;-77
2022/12/31 04:04:29;;;;;;;2.67;0.40;;;15.70;99.90;;;;;;5093210;28;20227;-77
2022/12/31 04:06:55;;;;;;;1.17;0.30;;;15.70;99.90;;;;;;5093250;28;20169;-77
2022/12/31 04:09:21;;;;;;;0.97;0.30;;;15.80;99.90;;;;;;5075233;28;20192;-77
2022/12/31 04:11:46;;;;;;;1.03;0.40;;;15.80;99.90;;;;;;5075291;28;20182;-76
2022/12/31 04:14:12;;;;;;;1.57;0.30;;;15.80;99.90;;;;;;5075167;28;20640;-77
2022/12/31 04:16:38;;;;;;;1.43;0.30;;;15.90;99.90;;;;;;5092626;28;20186;-77
2022/12/31 04:19:04;;;;;;;1.33;0.50;;;15.90;99.90;;;;;;5075297;28;20520;-77
2022/12/31 04:21:29;;;;;;;1.43;0.40;;;15.90;99.90;;;;;;5093144;28;20236;-77
2022/12/31 04:23:55;;;;;;;0.80;0.20;;;15.90;99.90;;;;;;5075081;28;20175;-77
2022/12/31 04:26:21;;;;;;;2.77;0.40;;;16.00;99.90;;;;;;5075125;28;20162;-77
2022/12/31 04:28:46;;;;;;;3.60;0.67;;;16.00;99.90;;;;;;5093302;28;20180;-77
2022/12/31 04:31:12;;;;;;;0.83;0.30;;;16.00;99.90;;;;;;5075260;28;20179;-78
2022/12/31 04:33:38;;;;;;;1.50;0.37;;;15.90;99.90;;;;;;5093023;28;20216;-77
2022/12/31 04:36:06;;;;;;;1.30;0.53;;;15.70;99.90;;;;;;5074904;28;20166;-77
2022/12/31 04:38:31;;;;;;;0.83;0.40;;;15.60;99.90;;;;;;5075025;28;20175;-77
2022/12/31 04:43:45;;;;;;;1.13;0.30;;;15.50;99.90;;;;;;5093276;28;20554;-77
2022/12/31 04:46:11;;;;;;;2.93;0.77;;;15.50;99.90;;;;;;5074759;28;20170;-77
2022/12/31 04:48:38;;;;;;;1.57;0.30;;;15.40;99.90;;;;;;5074788;28;20172;-77
2022/12/31 04:51:04;;;;;;;0.97;0.40;;;15.50;99.90;;;;;;5092602;28;20185;-77
2022/12/31 04:53:30;;;;;;;2.53;0.60;;;15.50;99.90;;;;;;5092694;28;20174;-77
2022/12/31 04:55:55;;;;;;;3.83;0.37;;;15.70;99.90;;;;;;5074567;28;20178;-77
2022/12/31 04:58:21;;;;;;;1.87;0.40;;;15.80;99.90;;;;;;5092555;28;20174;-76
2022/12/31 05:00:50;;;;;;;2.47;0.43;;;15.90;99.90;;;;;;5074585;28;20178;-77
2022/12/31 05:03:17;;;;;;;2.53;0.40;;;15.90;99.90;;;;;;5074437;28;20319;-77
2022/12/31 05:05:43;;;;;;;2.20;0.30;;;15.90;99.90;;;;;;5074321;28;20174;-77
2022/12/31 05:08:10;;;;;;;1.40;0.30;;;16.00;99.90;;;;;;5074793;28;20224;-77
2022/12/31 05:10:40;;;;;;;3.13;0.60;;;16.10;99.90;;;;;;5074910;28;20180;-77
2022/12/31 05:13:06;;;;;;;2.70;0.30;;;16.20;99.90;;;;;;5074300;28;20178;-77
2022/12/31 05:15:32;;;;;;;1.17;0.30;;;16.30;99.90;;;;;;5092708;28;20175;-77
2022/12/31 05:17:57;;;;;;;2.20;0.77;;;16.30;99.90;;;;;;5074530;28;20624;-77
2022/12/31 05:20:23;;;;;;;2.17;0.50;;;16.30;99.90;;;;;;5074084;28;20526;-76
2022/12/31 05:22:49;;;;;;;2.83;0.60;;;16.40;99.90;;;;;;5074491;28;20206;-77
2022/12/31 05:25:14;;;;;;;1.23;0.37;;;16.30;99.90;;;;;;5074477;28;20580;-77
2022/12/31 05:27:40;;;;;;;1.17;0.50;;;16.40;99.90;;;;;;5075188;28;20197;-76
2022/12/31 05:30:06;;;;;;;2.97;0.50;;;16.50;99.90;;;;;;5095988;28;20581;-77
2022/12/31 05:32:33;;;;;;;1.60;0.30;;;16.40;99.90;;;;;;5078099;28;20174;-77
2022/12/31 05:34:58;;;;;;;1.80;0.30;;;16.40;99.90;;;;;;5078130;28;20178;-77
2022/12/31 05:37:26;;;;;;;1.90;0.40;;;16.40;99.90;;;;;;5096037;28;20203;-77
2022/12/31 05:39:52;;;;;;;1.50;0.40;;;16.50;99.90;;;;;;5096083;28;20162;-77
2022/12/31 05:42:20;;;;;;;2.13;0.50;;;16.50;99.90;;;;;;5095945;28;20212;-77
2022/12/31 05:44:45;;;;;;;1.57;0.37;;;16.50;99.90;;;;;;5077953;28;20171;-77
2022/12/31 05:47:11;;;;;;;1.10;0.47;;;16.50;99.90;;;;;;5095817;28;20174;-77
2022/12/31 05:49:37;;;;;;;1.37;0.40;;;16.60;99.90;;;;;;5077366;28;20633;-77
2022/12/31 05:52:03;;;;;;;3.47;0.60;;;16.60;99.90;;;;;;5077679;28;20272;-76
2022/12/31 05:54:28;;;;;;;2.00;0.43;;;16.60;99.90;;;;;;5095588;28;20179;-77
2022/12/31 05:56:54;;;;;;;1.87;0.50;;;16.70;99.90;;;;;;5077551;28;20544;-77
2022/12/31 05:59:21;;;;;;;3.63;0.57;;;16.70;99.90;;;;;;5077350;28;20173;-77
2022/12/31 06:01:46;;;;;;;3.00;0.60;;;16.60;99.90;;;;;;5095637;28;20230;-77
2022/12/31 06:04:12;;;;;;;4.23;0.63;;;16.70;99.90;;;;;;5095962;28;20187;-77
2022/12/31 06:06:39;;;;;;;6.63;1.07;;;16.70;99.90;;;;;;5078525;28;20177;-79
2022/12/31 06:09:04;;;;;;;2.53;0.60;;;16.70;99.90;;;;;;5095330;28;20250;-82
2022/12/31 06:11:30;;;;;;;2.40;0.67;;;16.60;99.90;;;;;;5077325;28;20639;-82
2022/12/31 06:13:57;;;;;;;5.23;0.87;;;16.60;99.90;;;;;;5077347;28;20180;-81
2022/12/31 06:16:23;;;;;;;4.17;0.73;;;16.70;99.90;;;;;;5077121;28;20549;-81
2022/12/31 06:18:49;;;;;;;4.80;0.67;;;16.50;99.90;;;;;;5095349;28;20170;-82
2022/12/31 06:21:16;;;;;;;2.30;0.40;;;16.50;99.90;;;;;;5095127;28;20208;-81
2022/12/31 06:23:42;;;;;;;2.87;0.90;;;16.60;99.90;;;;;;5077055;28;20174;-81
2022/12/31 06:26:08;;;;;;;3.53;0.87;;;16.50;99.90;;;;;;5095246;28;20238;-80
2022/12/31 06:28:34;;;;;;;2.80;0.40;;;16.40;99.90;;;;;;5076894;28;20205;-81
2022/12/31 06:31:04;;;;;;;5.10;0.87;;;16.40;99.90;;;;;;5076782;28;20198;-81
2022/12/31 06:33:31;;;;;;;4.67;0.70;;;16.40;99.90;;;;;;5094733;28;20182;-81
2022/12/31 06:35:59;;;;;;;3.30;0.67;;;16.40;99.90;;;;;;5076677;28;20175;-81
2022/12/31 06:38:26;;;;;;;5.03;0.93;;;16.40;99.90;;;;;;5076699;28;20174;-81
2022/12/31 06:40:52;;;;;;;2.93;0.67;;;16.40;99.90;;;;;;5076001;28;20173;-81
2022/12/31 06:43:20;;;;;;;3.30;0.97;;;16.50;99.90;;;;;;5076653;28;20631;-81
2022/12/31 06:45:45;;;;;;;3.17;0.90;;;16.50;99.90;;;;;;5094664;28;20180;-81
2022/12/31 06:48:11;;;;;;;4.10;0.83;;;16.60;99.90;;;;;;5076650;28;20572;-81
2022/12/31 06:50:37;;;;;;;3.57;0.60;;;16.60;99.90;;;;;;5076785;28;20623;-80
2022/12/31 06:53:05;;;;;;;4.07;0.67;;;16.60;99.90;;;;;;5076641;28;20556;-80
2022/12/31 06:55:31;;;;;;;2.50;0.67;;;16.60;99.90;;;;;;5076551;28;20261;-80
2022/12/31 06:57:58;;;;;;;3.03;0.50;;;16.60;99.90;;;;;;5094614;28;20166;-80
2022/12/31 07:00:24;;;;;;;3.97;0.80;;;16.60;99.90;;;;;;5075898;28;20207;-82
2022/12/31 07:03:08;;;;;;;1.77;0.70;;;16.70;99.90;;;;;;5076294;28;20607;-80
2022/12/31 07:06:02;;;;;;;3.23;0.70;;;16.30;99.90;;;;;;5094572;28;20551;-80
2022/12/31 07:08:42;;;;;;;4.30;1.13;;;16.00;99.90;;;;;;5094444;28;20170;-80
2022/12/31 07:11:22;;;;;;;2.23;0.50;;;16.00;99.90;;;;;;5094256;28;20256;-80
2022/12/31 07:14:01;;;;;;;3.07;0.63;;;15.90;99.90;;;;;;5094348;28;20178;-80
2022/12/31 07:16:36;;;;;;;2.30;0.57;;;15.70;99.90;;;;;;5094149;28;20191;-80
2022/12/31 07:19:19;;;;;;;4.20;0.60;;;15.60;99.90;;;;;;5076182;28;20242;-80
2022/12/31 07:21:48;;;;;;;4.03;0.80;;;15.50;99.90;;;;;;5076008;28;20210;-80
2022/12/31 07:24:14;;;;;;;2.90;0.60;;;15.50;99.90;;;;;;5076319;28;20219;-80
2022/12/31 07:27:00;;;;;;;3.67;0.70;;;15.50;99.90;;;;;;5075995;28;20596;-81
2022/12/31 07:29:44;;;;;;;1.77;0.50;;;15.40;99.90;;;;;;5076337;28;20207;-81
2022/12/31 07:32:35;;;;;;;2.27;0.70;;;15.40;99.90;;;;;;5093914;28;20273;-81
2022/12/31 07:35:19;;;;;;;3.53;0.80;;;15.50;99.90;;;;;;5094103;28;20171;-80
2022/12/31 07:38:26;;;;;;;2.13;0.70;;;15.60;99.90;;;;;;5075662;28;20185;-81
2022/12/31 07:41:25;;;;;;;2.27;0.50;;;15.70;99.90;;;;;;5076073;28;20185;-81
2022/12/31 07:44:21;;;;;;;2.23;0.70;;;15.80;99.90;;;;;;5075415;28;20712;-80
2022/12/31 07:46:59;;;;;;;2.53;0.57;;;15.80;99.90;;;;;;5072453;28;20206;-81
2022/12/31 07:49:27;;;;;;;3.30;1.20;;;15.80;99.90;;;;;;5093553;28;20180;-81
2022/12/31 07:51:53;;;;;;;2.10;0.50;;;15.90;99.90;;;;;;5092805;28;20189;-81
2022/12/31 07:54:19;;;;;;;5.23;1.37;;;15.80;99.90;;;;;;5075438;28;20654;-80
2022/12/31 07:56:46;;;;;;;3.83;1.03;;;15.70;99.90;;;;;;5093421;28;20185;-79
2022/12/31 07:59:36;;;;;;;3.20;0.67;;;15.50;99.90;;;;;;5093241;28;20185;-80
2022/12/31 08:02:20;;;;;;;3.33;0.70;;;15.40;99.90;;;;;;5093164;28;20224;-81
2022/12/31 08:04:58;;;;;;;5.20;0.83;;;15.40;99.90;;;;;;5075166;28;20540;-81
2022/12/31 08:07:55;;;;;;;2.43;0.70;;;15.40;99.90;;;;;;5093545;28;20251;-80
2022/12/31 08:10:29;;;;;;;3.60;0.80;;;15.60;99.90;;;;;;5075343;28;20542;-80
2022/12/31 08:13:00;;;;;;;2.67;0.87;;;15.60;99.90;;;;;;5093361;28;20170;-80
2022/12/31 08:15:27;;;;;;;4.00;0.70;;;15.60;99.90;;;;;;5075137;28;20188;-80
2022/12/31 08:17:54;;;;;;;2.73;0.90;;;15.60;99.90;;;;;;5092933;28;20710;-80
2022/12/31 08:20:19;;;;;;;2.90;0.70;;;15.60;99.90;;;;;;5075023;28;20203;-80
2022/12/31 08:23:23;;;;;;;2.63;0.70;;;15.70;99.90;;;;;;5092862;28;20204;-79
2022/12/31 08:26:01;;;;;;;3.70;0.87;;;15.70;99.90;;;;;;5092039;28;20332;-80
2022/12/31 08:28:53;;;;;;;3.53;0.90;;;15.80;99.90;;;;;;5074620;28;20715;-81
2022/12/31 08:31:27;;;;;;;3.53;1.07;;;15.80;99.90;;;;;;5074745;28;20191;-80
2022/12/31 08:34:19;;;;;;;3.57;0.80;;;15.90;99.90;;;;;;5074698;28;20625;-81
2022/12/31 08:36:52;;;;;;;2.57;0.80;;;16.00;99.90;;;;;;5074999;28;20175;-80
2022/12/31 08:39:47;;;;;;;2.93;0.93;;;16.00;99.90;;;;;;5093208;28;20631;-81
2022/12/31 08:42:29;;;;;;;3.67;0.80;;;16.00;99.90;;;;;;5092632;28;20209;-81
2022/12/31 08:45:19;;;;;;;3.17;0.70;;;16.10;99.90;;;;;;5074991;28;20541;-80
2022/12/31 08:48:11;;;;;;;3.17;0.90;;;16.30;99.90;;;;;;5074865;28;20195;-80
2022/12/31 08:50:37;;;;;;;3.37;0.80;;;16.40;99.90;;;;;;5074650;28;20173;-81
2022/12/31 08:53:03;;;;;;;4.97;1.00;;;16.50;99.90;;;;;;5074577;28;20177;-80
2022/12/31 08:55:29;;;;;;;2.70;0.67;;;16.50;99.90;;;;;;5074641;28;20178;-80
2022/12/31 08:58:33;;;;;;;3.43;0.83;;;16.50;99.90;;;;;;5092363;28;20272;-80
2022/12/31 09:01:00;;;;;;;5.00;0.93;;;16.50;99.90;;;;;;5092752;28;20180;-80
2022/12/31 09:03:32;;;;;;;6.33;1.30;;;16.60;99.90;;;;;;5095068;28;20249;-81
2022/12/31 09:06:25;;;;;;;3.77;0.97;;;16.60;99.90;;;;;;5096670;28;20170;-81
2022/12/31 09:09:00;;;;;;;3.87;0.83;;;16.60;99.90;;;;;;5078535;28;20171;-81
2022/12/31 09:11:45;;;;;;;6.00;0.90;;;16.40;99.90;;;;;;5096727;28;20174;-80
2022/12/31 09:14:28;;;;;;;3.27;0.60;;;16.50;99.90;;;;;;5078165;28;20224;-80
2022/12/31 09:17:03;;;;;;;6.97;1.20;;;16.40;99.90;;;;;;5078244;28;20189;-80
2022/12/31 09:19:29;;;;;;;4.63;0.90;;;16.40;99.90;;;;;;5096852;28;20530;-80
2022/12/31 09:21:55;;;;;;;2.93;1.00;;;16.40;99.90;;;;;;5078339;28;20244;-79
2022/12/31 09:24:21;;;;;;;4.07;0.80;;;16.60;99.90;;;;;;5078033;28;20185;-80
2022/12/31 09:26:59;;;;;;;3.70;1.27;;;16.60;99.90;;;;;;5078467;28;20215;-81
2022/12/31 09:29:30;;;;;;;3.53;1.13;;;16.70;99.90;;;;;;5078249;28;20560;-79
2022/12/31 09:32:24;;;;;;;6.40;1.40;;;16.60;99.90;;;;;;5096735;28;20184;-81
2022/12/31 09:35:18;;;;;;;3.80;1.00;;;16.50;99.90;;;;;;5096043;28;20181;-79
2022/12/31 09:37:47;;;;;;;6.90;1.60;;;16.40;99.90;;;;;;5095829;28;20250;-79
2022/12/31 09:40:27;;;;;;;4.97;1.27;;;16.40;99.90;;;;;;5095820;28;20174;-79
2022/12/31 09:43:06;;;;;;;5.97;1.00;;;16.50;99.90;;;;;;5077740;28;20216;-79
2022/12/31 09:45:53;;;;;;;5.53;1.10;;;16.40;99.90;;;;;;5095700;28;20174;-79
2022/12/31 09:48:19;;;;;;;4.77;1.33;;;16.30;99.90;;;;;;5095852;28;20189;-79
2022/12/31 09:51:06;;;;;;;5.90;1.23;;;16.20;99.90;;;;;;5095689;28;20180;-78
2022/12/31 09:53:39;;;;;;;6.07;1.17;;;16.20;99.90;;;;;;5095901;28;20672;-81
2022/12/31 09:56:21;;;;;;;4.90;1.33;;;16.20;99.90;;;;;;5077161;28;20659;-78
2022/12/31 09:59:03;;;;;;;3.47;0.90;;;16.40;99.90;;;;;;5077456;28;20182;-79
2022/12/31 10:01:49;;;;;;;5.43;1.90;;;16.40;99.90;;;;;;5077364;28;20205;-79
2022/12/31 10:04:51;;;;;;;4.90;1.20;;;16.50;99.90;;;;;;5077221;28;20265;-79
2022/12/31 10:07:41;;;;;;;7.07;1.30;;;16.60;99.90;;;;;;5077376;28;20180;-79
2022/12/31 10:10:36;;;;;;;7.60;1.73;;;16.80;99.90;;;;;;5095296;28;20232;-79
2022/12/31 10:13:20;;;;;;;7.37;2.20;;;16.90;99.90;;;;;;5077272;28;20179;-79
2022/12/31 10:16:11;;;;;;;5.90;1.70;;;16.90;99.90;;;;;;5075967;28;20182;-79
2022/12/31 10:19:11;;;;;;;7.40;1.40;;;16.90;99.90;;;;;;5077259;28;20655;-79
2022/12/31 10:21:59;;;;;;;6.73;1.93;;;16.90;99.90;;;;;;5095097;28;20207;-81
2022/12/31 10:24:56;;;;;;;8.30;2.27;;;16.80;99.90;;;;;;5076744;28;20276;-80
2022/12/31 10:27:33;;;;;;;6.70;2.30;;;16.80;99.90;;;;;;5095460;28;20181;-79
2022/12/31 10:30:11;;;;;;;7.80;3.10;;;16.90;99.90;;;;;;5076742;28;20237;-79
2022/12/31 10:32:42;;;;;;;6.50;2.43;;;16.90;99.90;;;;;;5076876;28;20661;-79
2022/12/31 10:35:38;;;;;;;7.17;2.03;;;16.90;99.90;;;;;;5094856;28;20540;-79
2022/12/31 10:38:13;;;;;;;6.77;1.57;;;16.90;99.90;;;;;;5076660;28;20178;-79
2022/12/31 10:41:17;;;;;;;6.97;1.70;;;16.90;99.90;;;;;;5094644;28;20177;-79
2022/12/31 10:44:14;;;;;;;5.43;1.00;;;16.90;99.90;;;;;;5076403;28;20200;-79
2022/12/31 10:46:53;;;;;;;3.47;1.10;;;16.80;99.90;;;;;;5038615;28;20228;-79
2022/12/31 10:49:54;;;;;;;6.67;1.27;;;16.90;99.90;;;;;;5094662;28;20162;-80
2022/12/31 10:52:41;;;;;;;3.87;0.93;;;16.90;99.90;;;;;;5094446;28;20182;-79
2022/12/31 10:55:38;;;;;;;6.40;1.80;;;17.00;99.90;;;;;;5094500;28;20307;-79
2022/12/31 10:58:32;;;;;;;7.30;1.33;;;17.00;99.90;;;;;;5094433;28;20189;-79
2022/12/31 11:01:07;;;;;;;8.13;1.17;;;16.90;99.90;;;;;;5094200;28;20188;-79
2022/12/31 11:03:52;;;;;;;4.27;1.83;;;16.90;99.90;;;;;;5094516;28;20642;-79
2022/12/31 11:06:32;;;;;;;5.17;1.27;;;16.80;99.90;;;;;;5094278;28;20614;-79
2022/12/31 11:09:31;;;;;;;6.17;1.40;;;16.80;99.90;;;;;;5094122;28;20177;-79
2022/12/31 11:12:05;;;;;;;5.77;1.63;;;16.80;99.90;;;;;;5075901;28;20188;-79
2022/12/31 11:14:53;;;;;;;5.17;1.57;;;16.70;99.90;;;;;;5094176;28;20261;-81
2022/12/31 11:17:59;;;;;;;5.03;1.57;;;16.50;99.90;;;;;;5094131;28;20535;-80
2022/12/31 11:21:05;;;;;;;7.83;1.60;;;16.40;99.90;;;;;;5075787;28;20235;-82
2022/12/31 11:23:51;;;;;;;6.53;1.60;;;16.20;99.90;;;;;;5075586;28;20219;-79
2022/12/31 11:26:38;;;;;;;3.77;1.70;;;16.10;99.90;;;;;;5075562;28;20198;-81
2022/12/31 11:29:20;;;;;;;6.80;1.80;;;16.00;99.90;;;;;;5075725;28;20594;-79
2022/12/31 11:31:58;;;;;;;7.83;2.00;;;16.00;99.90;;;;;;5093772;28;20166;-80
2022/12/31 11:35:00;;;;;;;6.67;1.67;;;16.10;99.90;;;;;;5093765;28;20174;-80
2022/12/31 11:37:40;;;;;;;7.97;1.87;;;16.10;99.90;;;;;;5075380;28;20169;-81
2022/12/31 11:40:43;;;;;;;5.97;1.57;;;16.20;99.90;;;;;;5093851;28;20185;-80
2022/12/31 11:43:21;;;;;;;5.37;1.77;;;16.10;99.90;;;;;;5075377;28;20205;-81
2022/12/31 11:46:15;;;;;;;7.30;1.97;;;16.10;99.90;;;;;;5075548;28;20707;-80
2022/12/31 11:48:59;;;;;;;7.23;2.30;;;16.20;99.90;;;;;;5075354;28;20204;-80
2022/12/31 11:51:34;;;;;;;9.63;2.00;;;16.30;99.90;;;;;;5075036;28;20179;-80
2022/12/31 11:54:23;;;;;;;3.10;1.67;;;16.30;99.90;;;;;;5093550;28;20269;-80
2022/12/31 11:57:10;;;;;;;7.13;1.90;;;16.40;99.90;;;;;;5093224;28;20168;-79
2022/12/31 11:59:36;;;;;;;11.07;2.10;;;16.50;99.90;;;;;;5093277;28;20181;-79
2022/12/31 12:02:21;;;;;;;3.07;1.47;;;16.40;99.90;;;;;;5093129;28;20680;-80
2022/12/31 12:04:49;;;;;;;6.23;1.73;;;16.50;99.90;;;;;;5074761;28;20185;-80
2022/12/31 12:07:16;;;;;;;5.27;1.20;;;16.50;99.90;;;;;;5075062;28;20167;-80
2022/12/31 12:09:43;;;;;;;4.93;1.30;;;16.60;99.90;;;;;;5093161;28;20218;-80
2022/12/31 12:12:10;;;;;;;5.60;1.70;;;16.60;99.90;;;;;;5093056;28;20173;-79
2022/12/31 12:14:38;;;;;;;7.07;1.70;;;16.70;99.90;;;;;;5093037;28;20533;-79
2022/12/31 12:17:13;;;;;;;7.77;1.60;;;16.70;99.90;;;;;;5074928;28;20170;-79
2022/12/31 12:19:51;;;;;;;5.30;1.30;;;16.80;99.90;;;;;;5074640;28;20544;-79
2022/12/31 12:22:22;;;;;;;4.30;1.17;;;16.70;99.90;;;;;;5092867;28;20311;-78
2022/12/31 12:25:14;;;;;;;8.47;1.87;;;16.70;99.90;;;;;;5093002;28;20166;-79
2022/12/31 12:27:40;;;;;;;7.47;1.77;;;16.70;99.90;;;;;;5092841;28;20185;-79
2022/12/31 12:30:26;;;;;;;7.13;2.03;;;16.70;99.90;;;;;;5074610;28;20224;-80
2022/12/31 12:33:00;;;;;;;6.17;2.10;;;16.80;99.90;;;;;;5074558;28;20237;-79
2022/12/31 12:35:32;;;;;;;6.50;2.00;;;16.70;99.90;;;;;;5092540;28;20258;-80
2022/12/31 12:38:05;;;;;;;5.03;1.20;;;16.50;99.90;;;;;;5092297;28;20569;-78
2022/12/31 12:40:31;;;;;;;8.67;1.93;;;16.40;99.90;;;;;;5074722;28;20197;-79
2022/12/31 12:42:58;;;;;;;6.97;2.00;;;16.50;99.90;;;;;;5092809;28;20197;-81
2022/12/31 12:45:28;;;;;;;9.03;2.43;;;16.40;99.90;;;;;;5074596;28;20654;-79
2022/12/31 12:47:58;;;;;;;9.60;2.70;;;16.30;99.90;;;;;;5092688;28;20586;-79
2022/12/31 12:50:37;;;;;;;4.10;1.60;;;16.20;99.90;;;;;;5074327;28;20167;-79
2022/12/31 12:53:27;;;;;;;6.50;1.93;;;16.10;99.90;;;;;;5092561;28;20178;-80
2022/12/31 12:55:55;;;;;;;8.23;2.30;;;16.00;99.90;;;;;;5092624;28;20184;-80
2022/12/31 12:58:37;;;;;;;10.30;2.33;;;15.90;99.90;;;;;;5092559;28;20166;-78
2022/12/31 13:01:27;;;;;;;4.43;1.70;;;16.00;99.90;;;;;;5092647;28;20261;-78
2022/12/31 13:04:23;;;;;;;8.33;2.17;;;16.10;99.90;;;;;;5074354;28;20190;-79
2022/12/31 13:06:55;;;;;;;6.30;1.80;;;16.20;99.90;;;;;;5074359;28;20177;-79
2022/12/31 13:09:53;;;;;;;6.43;1.80;;;16.20;99.90;;;;;;5092323;28;20270;-79
2022/12/31 13:12:30;;;;;;;4.13;1.60;;;16.40;99.90;;;;;;5074354;28;20185;-80
2022/12/31 13:15:22;;;;;;;11.43;2.67;;;16.50;99.90;;;;;;5074341;28;20196;-80
2022/12/31 13:17:50;;;;;;;6.60;2.00;;;16.50;99.90;;;;;;5092258;28;20185;-79
2022/12/31 13:20:30;;;;;;;6.23;1.67;;;16.60;99.90;;;;;;5074206;28;20255;-79
2022/12/31 13:23:25;;;;;;;5.63;1.70;;;16.60;99.90;;;;;;5074382;28;20696;-79
2022/12/31 13:25:54;;;;;;;6.07;1.73;;;16.60;99.90;;;;;;5074293;28;20202;-79
2022/12/31 13:28:22;;;;;;;7.97;1.53;;;16.50;99.90;;;;;;5092332;28;20673;-79
2022/12/31 13:30:52;;;;;;;6.70;1.70;;;16.40;99.90;;;;;;5092247;28;20195;-79
2022/12/31 13:33:32;;;;;;;4.57;1.83;;;16.50;99.90;;;;;;5092144;28;20177;-79
2022/12/31 13:36:01;;;;;;;7.60;2.07;;;16.60;99.90;;;;;;5074138;28;20272;-79
2022/12/31 13:38:32;;;;;;;5.90;1.70;;;16.70;99.90;;;;;;5074137;28;20644;-79
2022/12/31 13:41:16;;;;;;;7.13;2.27;;;16.70;99.90;;;;;;5092184;28;20270;-79